createdAt,value
2023-02-19T00:00:33.437Z,1.58
2023-02-19T00:03:06.762Z,1.02
2023-02-19T00:05:38.835Z,0.62
2023-02-19T00:08:09.489Z,0.29
2023-02-19T00:10:39.990Z,0.12
2023-02-19T00:13:10.890Z,-0.03
2023-02-19T00:15:41.408Z,-0.09
2023-02-19T00:18:14.633Z,0.10
2023-02-19T00:20:45.196Z,0.28
2023-02-19T00:23:15.996Z,0.46
2023-02-19T00:25:46.452Z,0.69
2023-02-19T00:28:17.060Z,0.87
2023-02-19T00:30:47.560Z,1.04
2023-02-19T00:33:20.957Z,1.19
2023-02-19T00:35:51.569Z,1.34
2023-02-19T00:38:22.250Z,1.47
2023-02-19T00:40:52.722Z,1.49
2023-02-19T00:43:24.205Z,1.55
2023-02-19T00:45:54.754Z,1.43
2023-02-19T00:48:29.019Z,1.45
2023-02-19T00:50:59.479Z,1.23
2023-02-19T00:53:30.126Z,1.08
2023-02-19T00:56:00.648Z,0.88
2023-02-19T00:58:31.458Z,0.64
2023-02-19T01:01:02.652Z,0.44
2023-02-19T01:03:36.015Z,0.55
2023-02-19T01:06:07.987Z,0.48
2023-02-19T01:08:38.838Z,0.43
2023-02-19T01:11:10.928Z,0.34
2023-02-19T01:13:41.863Z,0.26
2023-02-19T01:16:15.889Z,0.24
2023-02-19T01:18:50.857Z,0.29
2023-02-19T01:21:22.888Z,0.38
2023-02-19T01:23:54.577Z,0.54
2023-02-19T01:26:26.826Z,0.73
2023-02-19T01:28:57.554Z,0.80
2023-02-19T01:31:29.227Z,0.82
2023-02-19T01:34:04.747Z,0.71
2023-02-19T01:36:38.025Z,0.58
2023-02-19T01:39:11.538Z,0.55
2023-02-19T01:41:43.910Z,0.53
2023-02-19T01:44:44.059Z,0.51
2023-02-19T01:47:14.850Z,0.42
2023-02-19T01:49:52.525Z,0.33
2023-02-19T01:52:28.835Z,0.31
2023-02-19T01:55:01.083Z,0.30
2023-02-19T01:57:38.115Z,0.33
2023-02-19T02:00:13.586Z,0.46
2023-02-19T02:02:46.532Z,0.61
2023-02-19T02:05:28.117Z,0.68
2023-02-19T02:08:11.150Z,0.67
2023-02-19T02:10:42.247Z,0.65
2023-02-19T02:13:13.280Z,0.76
2023-02-19T02:16:16.398Z,0.85
2023-02-19T02:19:01.623Z,0.93
2023-02-19T02:21:56.544Z,1.01
2023-02-19T02:24:53.193Z,1.07
2023-02-19T02:27:38.093Z,1.14
2023-02-19T02:30:22.564Z,1.08
2023-02-19T02:32:59.319Z,1.09
2023-02-19T02:35:33.863Z,1.05
2023-02-19T02:38:08.207Z,1.07
2023-02-19T02:40:39.709Z,1.04
2023-02-19T02:43:10.417Z,0.99
2023-02-19T02:45:44.328Z,0.85
2023-02-19T02:48:32.882Z,0.62
2023-02-19T02:51:09.191Z,0.47
2023-02-19T02:54:03.200Z,0.52
2023-02-19T02:56:35.150Z,0.52
2023-02-19T02:59:09.776Z,0.49
2023-02-19T03:01:58.606Z,0.48
2023-02-19T03:04:36.410Z,0.62
2023-02-19T03:07:11.029Z,0.79
2023-02-19T03:09:45.727Z,1.02
2023-02-19T03:12:37.802Z,1.16
2023-02-19T03:15:26.541Z,1.28
2023-02-19T03:18:16.788Z,1.22
2023-02-19T03:20:51.897Z,1.41
2023-02-19T03:23:47.321Z,1.49
2023-02-19T03:26:18.033Z,1.52
2023-02-19T03:29:08.297Z,1.43
2023-02-19T03:31:43.046Z,1.32
2023-02-19T03:34:22.019Z,1.28
2023-02-19T03:37:00.044Z,1.27
2023-02-19T03:39:31.220Z,1.16
2023-02-19T03:42:08.969Z,1.24
2023-02-19T03:44:45.202Z,1.25
2023-02-19T03:47:21.028Z,1.20
2023-02-19T03:49:59.902Z,1.08
2023-02-19T03:52:41.238Z,0.99
2023-02-19T03:55:17.122Z,1.01
2023-02-19T03:57:54.886Z,1.08
2023-02-19T04:00:31.080Z,1.09
2023-02-19T04:03:07.028Z,1.06
2023-02-19T04:05:44.727Z,1.13
2023-02-19T04:08:19.043Z,1.12
2023-02-19T04:10:57.777Z,1.20
2023-02-19T04:13:35.047Z,1.11
2023-02-19T04:16:10.255Z,1.05
2023-02-19T04:18:44.068Z,1.12
2023-02-19T04:21:18.805Z,1.17
2023-02-19T04:23:50.350Z,1.19
2023-02-19T04:26:23.338Z,1.13
2023-02-19T04:28:53.995Z,1.05
2023-02-19T04:31:25.318Z,1.14
2023-02-19T04:33:56.392Z,1.23
2023-02-19T04:36:29.556Z,1.24
2023-02-19T04:39:00.139Z,1.35
2023-02-19T04:41:30.627Z,1.45
2023-02-19T04:44:01.311Z,1.61
2023-02-19T04:46:31.900Z,1.77
2023-02-19T04:49:02.501Z,1.84
2023-02-19T04:51:35.753Z,1.85
2023-02-19T04:54:06.558Z,1.87
2023-02-19T04:56:37.093Z,2.00
2023-02-19T04:59:07.797Z,1.99
2023-02-19T05:01:39.444Z,2.01
2023-02-19T05:04:10.019Z,1.92
2023-02-19T05:06:43.162Z,1.98
2023-02-19T05:09:13.818Z,2.06
2023-02-19T05:11:44.392Z,2.13
2023-02-19T05:14:15.037Z,2.10
2023-02-19T05:16:45.612Z,2.19
2023-02-19T05:19:16.298Z,2.30
2023-02-19T05:21:49.744Z,2.37
2023-02-19T05:24:20.499Z,2.44
2023-02-19T05:26:51.128Z,2.42
2023-02-19T05:29:21.824Z,2.38
2023-02-19T05:31:52.444Z,2.45
2023-02-19T05:34:23.177Z,2.61
2023-02-19T05:36:56.404Z,2.74
2023-02-19T05:39:26.927Z,2.80
2023-02-19T05:41:57.485Z,2.72
2023-02-19T05:44:28.381Z,2.59
2023-02-19T05:46:58.942Z,2.48
2023-02-19T05:49:29.794Z,2.60
2023-02-19T05:52:02.900Z,2.76
2023-02-19T05:54:33.799Z,2.77
2023-02-19T05:57:04.535Z,2.89
2023-02-19T05:59:35.231Z,3.03
2023-02-19T06:02:05.750Z,3.11
2023-02-19T06:04:36.393Z,3.08
2023-02-19T06:07:09.465Z,2.99
2023-02-19T06:09:40.041Z,3.09
2023-02-19T06:12:11.126Z,3.20
2023-02-19T06:14:41.731Z,3.36
2023-02-19T06:17:12.189Z,3.45
2023-02-19T06:19:42.868Z,3.41
2023-02-19T06:22:17.805Z,3.28
2023-02-19T06:24:48.413Z,3.07
2023-02-19T06:27:19.082Z,3.10
2023-02-19T06:29:49.667Z,3.09
2023-02-19T06:32:20.285Z,3.13
2023-02-19T06:34:50.897Z,3.31
2023-02-19T06:37:24.142Z,3.45
2023-02-19T06:39:54.799Z,3.56
2023-02-19T06:42:25.410Z,3.63
2023-02-19T06:44:56.173Z,3.86
2023-02-19T06:47:26.733Z,4.17
2023-02-19T06:49:57.319Z,4.52
2023-02-19T06:52:30.513Z,4.81
2023-02-19T06:55:01.050Z,4.89
2023-02-19T06:57:33.856Z,5.17
2023-02-19T07:00:05.379Z,5.44
2023-02-19T07:02:35.981Z,5.60
2023-02-19T07:05:06.498Z,5.69
2023-02-19T07:07:39.700Z,5.89
2023-02-19T07:10:10.777Z,6.15
2023-02-19T07:12:41.413Z,6.39
2023-02-19T07:15:13.167Z,6.61
2023-02-19T07:17:43.644Z,6.78
2023-02-19T07:20:15.154Z,6.92
2023-02-19T07:22:48.409Z,6.96
2023-02-19T07:25:19.333Z,6.96
2023-02-19T07:27:49.865Z,7.18
2023-02-19T07:30:20.841Z,7.39
2023-02-19T07:32:51.431Z,7.74
2023-02-19T07:35:22.110Z,8.07
2023-02-19T07:37:55.281Z,8.48
2023-02-19T07:40:25.923Z,8.81
2023-02-19T07:42:56.527Z,9.21
2023-02-19T07:45:27.110Z,9.54
2023-02-19T07:47:57.633Z,9.91
2023-02-19T07:50:28.203Z,10.21
2023-02-19T07:53:01.400Z,10.60
2023-02-19T07:55:31.979Z,10.89
2023-02-19T07:58:05.839Z,11.18
2023-02-19T08:00:36.879Z,11.68
2023-02-19T08:03:04.959Z,12.13
2023-02-19T08:05:37.243Z,12.53
2023-02-19T08:08:12.477Z,12.99
2023-02-19T08:10:55.272Z,13.29
2023-02-19T08:13:26.008Z,13.84
2023-02-19T08:16:10.960Z,14.19
2023-02-19T08:18:47.681Z,14.55
2023-02-19T08:21:20.713Z,14.84
2023-02-19T08:23:53.850Z,15.03
2023-02-19T08:26:24.523Z,15.24
2023-02-19T08:28:54.946Z,15.36
2023-02-19T08:31:25.555Z,15.46
2023-02-19T08:33:56.276Z,15.46
2023-02-19T08:36:26.777Z,15.51
2023-02-19T08:38:59.897Z,15.56
2023-02-19T08:41:30.373Z,15.54
2023-02-19T08:44:00.938Z,15.60
2023-02-19T08:46:33.493Z,15.46
2023-02-19T08:49:05.605Z,15.46
2023-02-19T08:51:36.206Z,15.39
2023-02-19T08:54:09.465Z,15.38
2023-02-19T08:56:40.037Z,15.34
2023-02-19T08:59:10.629Z,15.41
2023-02-19T09:01:41.263Z,15.38
2023-02-19T09:04:15.301Z,15.46
2023-02-19T09:06:45.952Z,15.42
2023-02-19T09:09:19.133Z,15.54
2023-02-19T09:11:49.634Z,15.55
2023-02-19T09:14:20.329Z,15.63
2023-02-19T09:16:50.908Z,15.60
2023-02-19T09:19:21.581Z,15.66
2023-02-19T09:21:52.189Z,15.79
2023-02-19T09:24:25.900Z,15.76
2023-02-19T09:26:57.933Z,15.80
2023-02-19T09:29:30.277Z,15.77
2023-02-19T09:32:01.553Z,15.86
2023-02-19T09:34:32.629Z,15.88
2023-02-19T09:37:03.283Z,15.95
2023-02-19T09:39:36.707Z,15.98
2023-02-19T09:42:16.000Z,16.06
2023-02-19T09:44:48.675Z,16.12
2023-02-19T09:47:22.394Z,16.18
2023-02-19T09:49:55.580Z,16.22
2023-02-19T09:52:34.422Z,16.30
2023-02-19T09:55:17.466Z,16.33
2023-02-19T09:57:48.987Z,16.36
2023-02-19T10:00:25.645Z,16.41
2023-02-19T10:02:58.430Z,16.41
2023-02-19T10:05:29.979Z,16.48
2023-02-19T10:08:01.805Z,16.54
2023-02-19T10:10:38.583Z,16.59
2023-02-19T10:13:22.587Z,16.56
2023-02-19T10:15:55.210Z,16.63
2023-02-19T10:18:28.526Z,16.74
2023-02-19T10:21:00.550Z,16.85
2023-02-19T10:23:31.469Z,16.96
2023-02-19T10:26:04.755Z,17.13
2023-02-19T10:28:37.575Z,17.25
2023-02-19T10:31:20.836Z,17.42
2023-02-19T10:33:53.820Z,17.56
2023-02-19T10:36:32.277Z,17.73
2023-02-19T10:39:04.769Z,17.87
2023-02-19T10:41:44.420Z,18.06
2023-02-19T10:44:21.139Z,18.15
2023-02-19T10:46:55.464Z,18.23
2023-02-19T10:49:30.715Z,18.28
2023-02-19T10:52:05.710Z,18.33
2023-02-19T10:54:36.972Z,18.41
2023-02-19T10:57:30.551Z,18.34
2023-02-19T11:00:03.836Z,18.33
2023-02-19T11:02:35.766Z,18.30
2023-02-19T11:05:12.255Z,18.32
2023-02-19T11:07:49.273Z,18.33
2023-02-19T11:10:31.254Z,18.29
2023-02-19T11:13:06.749Z,18.27
2023-02-19T11:15:39.228Z,18.29
2023-02-19T11:18:23.809Z,18.28
2023-02-19T11:20:57.000Z,18.27
2023-02-19T11:23:31.264Z,18.26
2023-02-19T11:26:04.646Z,18.29
2023-02-19T11:28:40.420Z,18.26
2023-02-19T11:31:27.767Z,18.13
2023-02-19T11:34:01.200Z,18.23
2023-02-19T11:36:34.521Z,18.23
2023-02-19T11:39:22.678Z,18.24
2023-02-19T11:42:15.894Z,18.26
2023-02-19T11:45:03.389Z,18.27
2023-02-19T11:48:01.579Z,18.27
2023-02-19T11:50:42.932Z,18.28
2023-02-19T11:53:24.534Z,18.33
2023-02-19T11:56:13.628Z,18.35
2023-02-19T11:59:02.938Z,18.39
2023-02-19T12:01:50.999Z,18.48
2023-02-19T12:04:57.802Z,18.58
2023-02-19T12:07:53.101Z,18.65
2023-02-19T12:10:31.572Z,18.69
2023-02-19T12:13:10.690Z,18.78
2023-02-19T12:16:05.746Z,18.83
2023-02-19T12:19:02.183Z,18.88
2023-02-19T12:21:46.331Z,18.95
2023-02-19T12:24:37.278Z,19.03
2023-02-19T12:27:23.551Z,19.10
2023-02-19T12:30:12.605Z,19.18
2023-02-19T12:32:56.671Z,19.25
2023-02-19T12:35:52.029Z,19.29
2023-02-19T12:38:33.763Z,19.33
2023-02-19T12:41:27.993Z,19.38
2023-02-19T12:44:02.595Z,19.31
2023-02-19T12:46:39.833Z,19.23
2023-02-19T12:49:16.018Z,19.06
2023-02-19T12:51:55.414Z,18.88
2023-02-19T12:54:31.152Z,18.67
2023-02-19T12:57:05.927Z,18.54
2023-02-19T12:59:42.488Z,18.40
2023-02-19T13:02:20.989Z,18.26
2023-02-19T13:04:57.911Z,18.10
2023-02-19T13:07:37.169Z,17.96
2023-02-19T13:10:27.623Z,17.80
2023-02-19T13:13:01.659Z,17.64
2023-02-19T13:15:37.903Z,17.57
2023-02-19T13:18:16.773Z,17.47
2023-02-19T13:20:51.877Z,17.38
2023-02-19T13:23:42.072Z,17.30
2023-02-19T13:26:32.509Z,17.21
2023-02-19T13:29:17.345Z,17.15
2023-02-19T13:32:04.758Z,16.51
2023-02-19T13:34:54.998Z,15.49
2023-02-19T13:37:26.955Z,14.72
2023-02-19T13:40:03.547Z,14.25
2023-02-19T13:42:37.046Z,14.09
2023-02-19T13:45:10.156Z,14.03
2023-02-19T13:48:03.329Z,13.99
2023-02-19T13:50:35.821Z,13.96
2023-02-19T13:53:41.387Z,13.90
2023-02-19T13:56:42.696Z,13.79
2023-02-19T13:59:36.470Z,13.67
2023-02-19T14:02:18.797Z,13.61
2023-02-19T14:04:53.478Z,13.81
2023-02-19T14:07:55.488Z,14.06
2023-02-19T14:10:57.949Z,14.29
2023-02-19T14:13:58.369Z,14.51
2023-02-19T14:16:54.650Z,14.75
2023-02-19T14:20:01.159Z,14.88
2023-02-19T14:22:55.685Z,15.10
2023-02-19T14:25:52.946Z,15.21
2023-02-19T14:28:30.787Z,15.21
2023-02-19T14:31:03.937Z,14.92
2023-02-19T14:33:40.365Z,14.80
2023-02-19T14:36:22.211Z,14.80
2023-02-19T14:38:56.409Z,14.62
2023-02-19T14:41:28.960Z,14.63
2023-02-19T14:44:02.313Z,14.68
2023-02-19T14:46:35.898Z,14.50
2023-02-19T14:49:18.412Z,14.48
2023-02-19T14:51:54.298Z,14.47
2023-02-19T14:54:37.876Z,14.27
2023-02-19T14:57:18.560Z,14.04
2023-02-19T14:59:58.607Z,14.06
2023-02-19T15:02:30.786Z,13.98
2023-02-19T15:05:04.407Z,13.77
2023-02-19T15:07:36.909Z,13.82
2023-02-19T15:10:08.838Z,13.82
2023-02-19T15:12:52.912Z,13.61
2023-02-19T15:15:28.696Z,13.38
2023-02-19T15:18:02.534Z,13.44
2023-02-19T15:20:38.185Z,13.38
2023-02-19T15:23:10.702Z,13.13
2023-02-19T15:25:42.699Z,13.08
2023-02-19T15:28:23.720Z,13.07
2023-02-19T15:30:55.133Z,12.76
2023-02-19T15:33:27.373Z,12.45
2023-02-19T15:36:03.720Z,12.27
2023-02-19T15:38:34.818Z,12.32
2023-02-19T15:41:05.803Z,12.34
2023-02-19T15:43:44.521Z,12.41
2023-02-19T15:46:21.020Z,12.20
2023-02-19T15:48:56.293Z,11.88
2023-02-19T15:51:36.579Z,11.63
2023-02-19T15:54:19.793Z,11.69
2023-02-19T15:56:53.282Z,11.57
2023-02-19T15:59:31.848Z,11.33
2023-02-19T16:02:04.501Z,11.15
2023-02-19T16:04:38.558Z,11.23
2023-02-19T16:07:32.143Z,11.17
2023-02-19T16:10:23.747Z,11.07
2023-02-19T16:13:01.752Z,11.12
2023-02-19T16:15:34.988Z,10.98
2023-02-19T16:18:05.679Z,10.75
2023-02-19T16:20:38.497Z,10.57
2023-02-19T16:23:16.519Z,10.62
2023-02-19T16:25:47.911Z,10.79
2023-02-19T16:28:25.835Z,10.94
2023-02-19T16:31:00.070Z,11.08
2023-02-19T16:33:39.804Z,11.01
2023-02-19T16:36:29.015Z,11.09
2023-02-19T16:39:24.326Z,11.19
2023-02-19T16:42:15.466Z,11.30
2023-02-19T16:44:52.465Z,11.40
2023-02-19T16:47:37.378Z,11.41
2023-02-19T16:50:16.011Z,11.56
2023-02-19T16:52:57.323Z,11.49
2023-02-19T16:55:32.522Z,10.81
2023-02-19T16:58:03.310Z,10.13
2023-02-19T17:00:35.266Z,9.90
2023-02-19T17:03:10.002Z,9.82
2023-02-19T17:05:42.039Z,9.84
2023-02-19T17:08:35.246Z,9.94
2023-02-19T17:11:10.230Z,10.07
2023-02-19T17:13:41.153Z,10.21
2023-02-19T17:16:15.056Z,10.33
2023-02-19T17:18:45.614Z,10.44
2023-02-19T17:21:18.521Z,10.53
2023-02-19T17:23:49.309Z,10.52
2023-02-19T17:26:25.838Z,10.70
2023-02-19T17:28:56.812Z,10.80
2023-02-19T17:31:27.828Z,10.85
2023-02-19T17:33:59.110Z,10.90
2023-02-19T17:36:31.807Z,10.89
2023-02-19T17:39:03.449Z,10.97
2023-02-19T17:41:36.720Z,10.99
2023-02-19T17:44:07.312Z,10.83
2023-02-19T17:46:37.981Z,10.68
2023-02-19T17:49:09.002Z,10.51
2023-02-19T17:51:39.673Z,10.38
2023-02-19T17:54:10.303Z,10.19
2023-02-19T17:56:46.218Z,10.05
2023-02-19T17:59:18.356Z,9.85
2023-02-19T18:01:49.125Z,9.76
2023-02-19T18:04:19.750Z,9.61
2023-02-19T18:06:50.922Z,9.57
2023-02-19T18:09:22.612Z,9.46
2023-02-19T18:11:55.834Z,9.41
2023-02-19T18:14:26.626Z,9.31
2023-02-19T18:16:57.262Z,9.15
2023-02-19T18:19:27.785Z,9.15
2023-02-19T18:21:58.479Z,9.04
2023-02-19T18:24:29.106Z,9.06
2023-02-19T18:27:02.303Z,9.10
2023-02-19T18:29:35.079Z,9.02
2023-02-19T18:32:05.850Z,8.96
2023-02-19T18:34:36.465Z,8.95
2023-02-19T18:37:07.124Z,8.79
2023-02-19T18:39:37.711Z,8.81
2023-02-19T18:42:11.049Z,8.79
2023-02-19T18:44:42.322Z,8.86
2023-02-19T18:47:13.418Z,8.83
2023-02-19T18:49:47.736Z,8.67
2023-02-19T18:52:20.570Z,8.65
2023-02-19T18:54:52.070Z,8.61
2023-02-19T18:57:27.104Z,8.59
2023-02-19T18:59:57.718Z,8.59
2023-02-19T19:02:36.355Z,8.50
2023-02-19T19:05:07.200Z,8.29
2023-02-19T19:07:41.376Z,8.31
2023-02-19T19:10:19.445Z,8.29
2023-02-19T19:13:00.757Z,8.36
2023-02-19T19:15:33.044Z,8.43
2023-02-19T19:18:03.700Z,8.50
2023-02-19T19:20:34.295Z,8.48
2023-02-19T19:23:05.292Z,8.23
2023-02-19T19:25:35.838Z,8.15
2023-02-19T19:28:09.110Z,8.17
2023-02-19T19:30:39.812Z,8.18
2023-02-19T19:33:12.155Z,8.25
2023-02-19T19:35:44.813Z,8.31
2023-02-19T19:38:16.423Z,8.38
2023-02-19T19:40:47.126Z,8.31
2023-02-19T19:43:20.514Z,8.15
2023-02-19T19:45:51.264Z,8.10
2023-02-19T19:48:22.183Z,8.08
2023-02-19T19:50:52.913Z,8.15
2023-02-19T19:53:23.980Z,8.17
2023-02-19T19:55:55.472Z,8.05
2023-02-19T19:58:28.969Z,8.04
2023-02-19T20:01:01.913Z,8.06
2023-02-19T20:03:33.755Z,8.01
2023-02-19T20:06:04.676Z,8.13
2023-02-19T20:08:35.357Z,8.03
2023-02-19T20:11:06.470Z,8.05
2023-02-19T20:13:39.756Z,8.05
2023-02-19T20:16:12.650Z,7.88
2023-02-19T20:18:43.553Z,7.86
2023-02-19T20:21:14.746Z,7.87
2023-02-19T20:23:45.513Z,7.93
2023-02-19T20:26:16.091Z,7.98
2023-02-19T20:28:49.304Z,7.88
2023-02-19T20:31:20.868Z,7.73
2023-02-19T20:33:51.839Z,7.69
2023-02-19T20:36:22.904Z,7.63
2023-02-19T20:38:53.876Z,7.58
2023-02-19T20:41:24.924Z,7.62
2023-02-19T20:43:58.169Z,7.55
2023-02-19T20:46:30.076Z,7.50
2023-02-19T20:49:00.814Z,7.51
2023-02-19T20:51:31.475Z,7.51
2023-02-19T20:54:02.018Z,7.58
2023-02-19T20:56:32.805Z,7.54
2023-02-19T20:59:06.020Z,7.30
2023-02-19T21:01:36.663Z,6.78
2023-02-19T21:04:07.365Z,6.23
2023-02-19T21:06:38.477Z,5.67
2023-02-19T21:09:09.457Z,5.31
2023-02-19T21:11:40.164Z,5.09
2023-02-19T21:14:13.602Z,4.97
2023-02-19T21:16:44.537Z,4.99
2023-02-19T21:19:15.224Z,5.02
2023-02-19T21:21:45.995Z,5.08
2023-02-19T21:24:18.782Z,5.17
2023-02-19T21:26:49.473Z,5.21
2023-02-19T21:29:25.590Z,5.29
2023-02-19T21:31:58.998Z,5.31
2023-02-19T21:34:31.415Z,5.30
2023-02-19T21:37:02.159Z,5.20
2023-02-19T21:39:33.812Z,5.08
2023-02-19T21:42:04.400Z,4.92
2023-02-19T21:44:37.563Z,4.82
2023-02-19T21:47:08.370Z,4.83
2023-02-19T21:49:38.955Z,4.92
2023-02-19T21:52:09.674Z,5.06
2023-02-19T21:54:40.249Z,5.20
2023-02-19T21:57:11.345Z,5.31
2023-02-19T21:59:44.537Z,5.55
2023-02-19T22:02:15.316Z,5.82
2023-02-19T22:04:45.980Z,6.01
2023-02-19T22:07:16.557Z,6.37
2023-02-19T22:09:47.384Z,6.67
2023-02-19T22:12:18.155Z,6.96
2023-02-19T22:14:51.990Z,7.23
2023-02-19T22:17:22.949Z,7.50
2023-02-19T22:19:53.459Z,7.78
2023-02-19T22:22:24.151Z,8.04
2023-02-19T22:24:54.697Z,8.23
2023-02-19T22:27:25.529Z,8.45
2023-02-19T22:29:58.642Z,8.62
2023-02-19T22:32:29.545Z,8.75
2023-02-19T22:35:01.068Z,8.90
2023-02-19T22:37:34.246Z,9.03
2023-02-19T22:40:05.246Z,9.10
2023-02-19T22:42:36.260Z,9.20
2023-02-19T22:45:10.551Z,9.25
2023-02-19T22:47:42.486Z,9.32
2023-02-19T22:50:20.160Z,9.33
2023-02-19T22:52:54.637Z,9.40
2023-02-19T22:55:25.496Z,9.42
2023-02-19T22:57:56.668Z,9.44
2023-02-19T23:00:30.227Z,9.40
2023-02-19T23:03:01.128Z,9.43
2023-02-19T23:05:32.696Z,9.42
2023-02-19T23:08:03.375Z,9.40
2023-02-19T23:10:33.991Z,9.40
2023-02-19T23:13:04.544Z,9.43
2023-02-19T23:15:37.841Z,9.45
2023-02-19T23:18:08.796Z,9.47
2023-02-19T23:20:39.658Z,9.49
2023-02-19T23:23:10.297Z,9.51
2023-02-19T23:25:40.823Z,9.55
2023-02-19T23:28:11.407Z,9.36
2023-02-19T23:30:44.660Z,9.40
2023-02-19T23:33:15.212Z,9.33
2023-02-19T23:35:45.837Z,9.36
2023-02-19T23:38:16.350Z,9.28
2023-02-19T23:40:46.876Z,9.29
2023-02-19T23:43:17.468Z,9.25
2023-02-19T23:45:50.761Z,9.30
2023-02-19T23:48:21.468Z,9.33
2023-02-19T23:50:51.966Z,9.28
2023-02-19T23:53:22.662Z,9.37
2023-02-19T23:55:53.627Z,9.42
2023-02-19T23:58:24.212Z,9.44
